sensor_id;sensor_type;location;lat;lon;timestamp;pressure;altitude;pressure_sealevel;temperature;humidity
53041;BME280;39326;42.650;23.248;2024-01-15T00:01:59;91884.63;;;-2.34;62.05
53041;BME280;39326;42.650;23.248;2024-01-15T00:04:24;91892.22;;;-2.41;62.92
53041;BME280;39326;42.650;23.248;2024-01-15T00:06:50;91882.34;;;-2.36;62.09
53041;BME280;39326;42.650;23.248;2024-01-15T00:09:15;91893.59;;;-2.44;63.25
53041;BME280;39326;42.650;23.248;2024-01-15T00:11:42;91887.00;;;-2.41;63.05
53041;BME280;39326;42.650;23.248;2024-01-15T00:14:08;91873.72;;;-2.57;63.85
53041;BME280;39326;42.650;23.248;2024-01-15T00:16:34;91887.88;;;-2.88;65.70
53041;BME280;39326;42.650;23.248;2024-01-15T00:18:59;91878.16;;;-2.78;64.62
53041;BME280;39326;42.650;23.248;2024-01-15T00:21:24;91875.56;;;-2.57;63.77
53041;BME280;39326;42.650;23.248;2024-01-15T00:23:50;91871.50;;;-2.67;64.99
53041;BME280;39326;42.650;23.248;2024-01-15T00:26:15;91887.78;;;-2.70;65.56
53041;BME280;39326;42.650;23.248;2024-01-15T00:28:41;91899.47;;;-2.47;63.69
53041;BME280;39326;42.650;23.248;2024-01-15T00:31:06;91895.38;;;-2.56;64.05
53041;BME280;39326;42.650;23.248;2024-01-15T00:33:32;91891.88;;;-2.40;63.70
53041;BME280;39326;42.650;23.248;2024-01-15T00:35:57;91889.66;;;-2.29;62.97
53041;BME280;39326;42.650;23.248;2024-01-15T00:38:23;91889.53;;;-2.32;63.37
53041;BME280;39326;42.650;23.248;2024-01-15T00:40:48;91883.78;;;-2.47;63.46
53041;BME280;39326;42.650;23.248;2024-01-15T00:43:14;91893.44;;;-2.68;65.16
53041;BME280;39326;42.650;23.248;2024-01-15T00:45:40;91896.19;;;-2.65;64.94
53041;BME280;39326;42.650;23.248;2024-01-15T00:48:06;91898.22;;;-2.49;63.51
53041;BME280;39326;42.650;23.248;2024-01-15T00:50:31;91894.84;;;-2.50;63.65
53041;BME280;39326;42.650;23.248;2024-01-15T00:52:57;91885.44;;;-2.63;64.23
53041;BME280;39326;42.650;23.248;2024-01-15T00:55:22;91895.69;;;-2.58;64.19
53041;BME280;39326;42.650;23.248;2024-01-15T00:57:47;91892.06;;;-2.45;63.20
53041;BME280;39326;42.650;23.248;2024-01-15T01:00:13;91881.88;;;-2.38;62.61
53041;BME280;39326;42.650;23.248;2024-01-15T01:02:39;91877.38;;;-2.28;62.04
53041;BME280;39326;42.650;23.248;2024-01-15T01:05:04;91871.44;;;-2.38;62.14
53041;BME280;39326;42.650;23.248;2024-01-15T01:07:30;91882.06;;;-2.64;64.03
53041;BME280;39326;42.650;23.248;2024-01-15T01:09:55;91884.63;;;-2.55;62.83
53041;BME280;39326;42.650;23.248;2024-01-15T01:12:20;91891.13;;;-2.61;63.99
53041;BME280;39326;42.650;23.248;2024-01-15T01:14:46;91888.50;;;-2.61;64.16
53041;BME280;39326;42.650;23.248;2024-01-15T01:17:11;91878.56;;;-2.47;63.04
53041;BME280;39326;42.650;23.248;2024-01-15T01:19:37;91883.63;;;-2.42;63.23
53041;BME280;39326;42.650;23.248;2024-01-15T01:22:02;91881.25;;;-2.55;63.99
53041;BME280;39326;42.650;23.248;2024-01-15T01:24:27;91872.78;;;-2.52;63.09
53041;BME280;39326;42.650;23.248;2024-01-15T01:26:53;91865.78;;;-2.60;63.88
53041;BME280;39326;42.650;23.248;2024-01-15T01:29:18;91864.13;;;-2.44;62.81
53041;BME280;39326;42.650;23.248;2024-01-15T01:31:44;91856.28;;;-2.44;63.20
53041;BME280;39326;42.650;23.248;2024-01-15T01:34:10;91851.38;;;-2.46;62.97
53041;BME280;39326;42.650;23.248;2024-01-15T01:36:36;91857.88;;;-2.52;63.29
53041;BME280;39326;42.650;23.248;2024-01-15T01:39:01;91857.78;;;-2.55;63.34
53041;BME280;39326;42.650;23.248;2024-01-15T01:41:27;91851.91;;;-2.73;63.74
53041;BME280;39326;42.650;23.248;2024-01-15T01:43:52;91846.03;;;-2.70;63.99
53041;BME280;39326;42.650;23.248;2024-01-15T01:46:18;91848.47;;;-2.65;64.11
53041;BME280;39326;42.650;23.248;2024-01-15T01:48:44;91843.50;;;-2.58;63.55
53041;BME280;39326;42.650;23.248;2024-01-15T01:51:09;91839.44;;;-2.47;62.65
53041;BME280;39326;42.650;23.248;2024-01-15T01:53:36;91842.41;;;-2.57;63.07
53041;BME280;39326;42.650;23.248;2024-01-15T01:56:03;91840.63;;;-2.44;63.07
53041;BME280;39326;42.650;23.248;2024-01-15T01:58:30;91842.41;;;-2.57;63.27
53041;BME280;39326;42.650;23.248;2024-01-15T02:00:58;91834.22;;;-2.47;62.71
53041;BME280;39326;42.650;23.248;2024-01-15T02:03:24;91831.47;;;-2.50;62.59
53041;BME280;39326;42.650;23.248;2024-01-15T02:05:51;91836.06;;;-2.47;63.15
53041;BME280;39326;42.650;23.248;2024-01-15T02:08:18;91826.31;;;-2.59;63.21
53041;BME280;39326;42.650;23.248;2024-01-15T02:10:43;91828.03;;;-2.63;64.10
53041;BME280;39326;42.650;23.248;2024-01-15T02:13:09;91825.06;;;-2.74;64.01
53041;BME280;39326;42.650;23.248;2024-01-15T02:15:34;91818.75;;;-2.73;63.97
53041;BME280;39326;42.650;23.248;2024-01-15T02:18:04;91812.00;;;-2.74;63.89
53041;BME280;39326;42.650;23.248;2024-01-15T02:20:31;91810.16;;;-2.73;63.88
53041;BME280;39326;42.650;23.248;2024-01-15T02:23:09;91776.88;;;-2.76;64.19
53041;BME280;39326;42.650;23.248;2024-01-15T02:25:39;91760.16;;;-2.96;65.74
53041;BME280;39326;42.650;23.248;2024-01-15T02:28:06;91766.38;;;-3.09;66.18
53041;BME280;39326;42.650;23.248;2024-01-15T02:30:35;91774.97;;;-2.88;65.00
53041;BME280;39326;42.650;23.248;2024-01-15T02:33:03;91773.09;;;-2.88;65.75
53041;BME280;39326;42.650;23.248;2024-01-15T02:35:28;91781.97;;;-2.80;64.44
53041;BME280;39326;42.650;23.248;2024-01-15T02:37:53;91777.97;;;-2.77;64.15
53041;BME280;39326;42.650;23.248;2024-01-15T02:40:19;91784.84;;;-2.73;64.67
53041;BME280;39326;42.650;23.248;2024-01-15T02:42:44;91771.91;;;-2.69;64.12
53041;BME280;39326;42.650;23.248;2024-01-15T02:45:09;91768.34;;;-2.65;64.43
53041;BME280;39326;42.650;23.248;2024-01-15T02:47:35;91778.78;;;-2.65;64.62
53041;BME280;39326;42.650;23.248;2024-01-15T02:50:00;91777.53;;;-2.79;64.93
53041;BME280;39326;42.650;23.248;2024-01-15T02:52:26;91777.13;;;-2.69;64.39
53041;BME280;39326;42.650;23.248;2024-01-15T02:54:51;91779.03;;;-2.57;64.17
53041;BME280;39326;42.650;23.248;2024-01-15T02:57:16;91775.88;;;-2.51;64.23
53041;BME280;39326;42.650;23.248;2024-01-15T02:59:42;91779.06;;;-2.45;64.06
53041;BME280;39326;42.650;23.248;2024-01-15T03:02:07;91765.69;;;-2.44;64.07
53041;BME280;39326;42.650;23.248;2024-01-15T03:04:32;91771.41;;;-2.83;67.33
53041;BME280;39326;42.650;23.248;2024-01-15T03:06:58;91765.28;;;-2.67;65.66
53041;BME280;39326;42.650;23.248;2024-01-15T03:09:23;91765.13;;;-2.49;64.56
53041;BME280;39326;42.650;23.248;2024-01-15T03:11:49;91773.81;;;-2.57;64.65
53041;BME280;39326;42.650;23.248;2024-01-15T03:14:14;91744.19;;;-2.41;64.03
53041;BME280;39326;42.650;23.248;2024-01-15T03:16:40;91770.75;;;-2.59;65.07
53041;BME280;39326;42.650;23.248;2024-01-15T03:19:05;91751.66;;;-2.51;64.89
53041;BME280;39326;42.650;23.248;2024-01-15T03:21:30;91748.66;;;-2.62;65.84
53041;BME280;39326;42.650;23.248;2024-01-15T03:23:56;91734.69;;;-2.45;64.91
53041;BME280;39326;42.650;23.248;2024-01-15T03:26:21;91745.91;;;-2.45;65.87
53041;BME280;39326;42.650;23.248;2024-01-15T03:28:47;91740.25;;;-2.47;65.41
53041;BME280;39326;42.650;23.248;2024-01-15T03:31:12;91743.31;;;-2.32;64.89
53041;BME280;39326;42.650;23.248;2024-01-15T03:33:37;91745.75;;;-2.27;64.50
53041;BME280;39326;42.650;23.248;2024-01-15T03:36:03;91747.13;;;-2.42;66.19
53041;BME280;39326;42.650;23.248;2024-01-15T03:38:28;91742.63;;;-2.54;66.36
53041;BME280;39326;42.650;23.248;2024-01-15T03:40:54;91748.56;;;-2.32;65.25
53041;BME280;39326;42.650;23.248;2024-01-15T03:43:19;91748.03;;;-2.26;64.81
53041;BME280;39326;42.650;23.248;2024-01-15T03:45:45;91749.84;;;-2.39;65.52
53041;BME280;39326;42.650;23.248;2024-01-15T03:48:11;91742.03;;;-2.26;64.85
53041;BME280;39326;42.650;23.248;2024-01-15T03:50:36;91744.03;;;-2.23;64.90
53041;BME280;39326;42.650;23.248;2024-01-15T03:53:02;91735.09;;;-2.22;64.69
53041;BME280;39326;42.650;23.248;2024-01-15T03:55:27;91736.50;;;-2.25;64.42
53041;BME280;39326;42.650;23.248;2024-01-15T03:57:52;91748.56;;;-2.32;64.36
53041;BME280;39326;42.650;23.248;2024-01-15T04:00:18;91734.31;;;-2.35;64.28
53041;BME280;39326;42.650;23.248;2024-01-15T04:02:44;91732.66;;;-2.40;64.67
53041;BME280;39326;42.650;23.248;2024-01-15T04:05:09;91725.38;;;-2.34;64.50
53041;BME280;39326;42.650;23.248;2024-01-15T04:07:35;91711.22;;;-2.45;64.72
53041;BME280;39326;42.650;23.248;2024-01-15T04:10:00;91716.31;;;-2.49;65.27
53041;BME280;39326;42.650;23.248;2024-01-15T04:12:26;91720.09;;;-2.58;65.33
53041;BME280;39326;42.650;23.248;2024-01-15T04:14:51;91712.47;;;-2.64;65.88
53041;BME280;39326;42.650;23.248;2024-01-15T04:17:17;91718.38;;;-2.54;64.80
53041;BME280;39326;42.650;23.248;2024-01-15T04:19:46;91719.22;;;-2.50;65.11
53041;BME280;39326;42.650;23.248;2024-01-15T04:22:13;91717.72;;;-2.51;65.01
53041;BME280;39326;42.650;23.248;2024-01-15T04:24:38;91720.75;;;-2.49;65.31
53041;BME280;39326;42.650;23.248;2024-01-15T04:27:04;91729.81;;;-2.47;64.23
53041;BME280;39326;42.650;23.248;2024-01-15T04:29:30;91725.69;;;-2.48;64.38
53041;BME280;39326;42.650;23.248;2024-01-15T04:31:55;91725.88;;;-2.53;65.37
53041;BME280;39326;42.650;23.248;2024-01-15T04:34:20;91726.06;;;-2.58;65.21
53041;BME280;39326;42.650;23.248;2024-01-15T04:36:46;91721.22;;;-2.47;64.60
53041;BME280;39326;42.650;23.248;2024-01-15T04:39:11;91717.00;;;-2.40;64.33
53041;BME280;39326;42.650;23.248;2024-01-15T04:41:37;91717.13;;;-2.36;64.46
53041;BME280;39326;42.650;23.248;2024-01-15T04:44:02;91718.97;;;-2.37;63.93
53041;BME280;39326;42.650;23.248;2024-01-15T04:46:28;91722.66;;;-2.38;64.01
53041;BME280;39326;42.650;23.248;2024-01-15T04:48:53;91724.75;;;-2.64;65.64
53041;BME280;39326;42.650;23.248;2024-01-15T04:51:19;91712.94;;;-2.49;64.30
53041;BME280;39326;42.650;23.248;2024-01-15T04:53:44;91705.94;;;-2.57;64.64
53041;BME280;39326;42.650;23.248;2024-01-15T04:56:10;91692.56;;;-2.56;64.96
53041;BME280;39326;42.650;23.248;2024-01-15T04:58:35;91690.22;;;-2.49;64.79
53041;BME280;39326;42.650;23.248;2024-01-15T05:01:00;91686.53;;;-2.48;64.19
53041;BME280;39326;42.650;23.248;2024-01-15T05:03:26;91681.09;;;-2.43;64.71
53041;BME280;39326;42.650;23.248;2024-01-15T05:05:51;91680.41;;;-2.52;65.59
53041;BME280;39326;42.650;23.248;2024-01-15T05:08:17;91685.44;;;-2.47;65.66
53041;BME280;39326;42.650;23.248;2024-01-15T05:10:42;91679.66;;;-2.52;65.42
53041;BME280;39326;42.650;23.248;2024-01-15T05:13:07;91683.22;;;-2.57;65.98
53041;BME280;39326;42.650;23.248;2024-01-15T05:15:33;91686.06;;;-2.50;65.44
53041;BME280;39326;42.650;23.248;2024-01-15T05:17:58;91682.94;;;-2.43;65.11
53041;BME280;39326;42.650;23.248;2024-01-15T05:20:24;91690.88;;;-2.40;65.43
53041;BME280;39326;42.650;23.248;2024-01-15T05:22:49;91698.50;;;-2.47;64.78
53041;BME280;39326;42.650;23.248;2024-01-15T05:25:14;91698.81;;;-2.48;65.58
53041;BME280;39326;42.650;23.248;2024-01-15T05:27:40;91699.16;;;-2.38;64.79
53041;BME280;39326;42.650;23.248;2024-01-15T05:30:06;91700.44;;;-2.44;65.50
53041;BME280;39326;42.650;23.248;2024-01-15T05:32:31;91690.66;;;-2.47;64.74
53041;BME280;39326;42.650;23.248;2024-01-15T05:34:57;91690.00;;;-2.44;65.22
53041;BME280;39326;42.650;23.248;2024-01-15T05:37:22;91694.91;;;-2.42;64.70
53041;BME280;39326;42.650;23.248;2024-01-15T05:39:48;91691.00;;;-2.48;65.29
53041;BME280;39326;42.650;23.248;2024-01-15T05:42:13;91679.13;;;-2.46;65.36
53041;BME280;39326;42.650;23.248;2024-01-15T05:44:38;91665.88;;;-2.41;64.53
53041;BME280;39326;42.650;23.248;2024-01-15T05:47:04;91665.22;;;-2.38;64.28
53041;BME280;39326;42.650;23.248;2024-01-15T05:49:30;91670.56;;;-2.34;64.68
53041;BME280;39326;42.650;23.248;2024-01-15T05:51:55;91656.75;;;-2.35;64.73
53041;BME280;39326;42.650;23.248;2024-01-15T05:54:21;91664.56;;;-2.47;65.17
53041;BME280;39326;42.650;23.248;2024-01-15T05:56:46;91673.28;;;-2.30;64.86
53041;BME280;39326;42.650;23.248;2024-01-15T05:59:12;91669.06;;;-2.23;64.47
53041;BME280;39326;42.650;23.248;2024-01-15T06:01:37;91666.66;;;-2.28;64.05
53041;BME280;39326;42.650;23.248;2024-01-15T06:04:02;91661.00;;;-2.42;65.21
53041;BME280;39326;42.650;23.248;2024-01-15T06:06:28;91649.09;;;-2.52;65.99
53041;BME280;39326;42.650;23.248;2024-01-15T06:08:53;91668.59;;;-2.37;65.15
53041;BME280;39326;42.650;23.248;2024-01-15T06:11:19;91663.25;;;-2.41;65.26
53041;BME280;39326;42.650;23.248;2024-01-15T06:13:44;91672.94;;;-2.41;64.72
53041;BME280;39326;42.650;23.248;2024-01-15T06:16:16;91679.81;;;-2.37;64.60
53041;BME280;39326;42.650;23.248;2024-01-15T06:18:42;91674.34;;;-2.44;64.67
53041;BME280;39326;42.650;23.248;2024-01-15T06:21:07;91664.34;;;-2.42;64.79
53041;BME280;39326;42.650;23.248;2024-01-15T06:23:36;91660.88;;;-2.33;65.20
53041;BME280;39326;42.650;23.248;2024-01-15T06:26:01;91663.28;;;-2.28;64.97
53041;BME280;39326;42.650;23.248;2024-01-15T06:28:29;91666.09;;;-2.33;65.02
53041;BME280;39326;42.650;23.248;2024-01-15T06:30:57;91670.00;;;-2.40;66.48
53041;BME280;39326;42.650;23.248;2024-01-15T06:33:24;91662.97;;;-2.15;65.32
53041;BME280;39326;42.650;23.248;2024-01-15T06:35:50;91666.78;;;-2.00;64.69
53041;BME280;39326;42.650;23.248;2024-01-15T06:38:16;91665.59;;;-1.90;64.09
53041;BME280;39326;42.650;23.248;2024-01-15T06:40:41;91675.50;;;-1.84;63.87
53041;BME280;39326;42.650;23.248;2024-01-15T06:43:12;91673.84;;;-1.76;63.43
53041;BME280;39326;42.650;23.248;2024-01-15T06:45:38;91681.25;;;-1.66;63.51
53041;BME280;39326;42.650;23.248;2024-01-15T06:48:04;91671.66;;;-1.62;63.74
53041;BME280;39326;42.650;23.248;2024-01-15T06:50:30;91675.47;;;-1.59;63.76
53041;BME280;39326;42.650;23.248;2024-01-15T06:52:55;91667.72;;;-1.56;63.43
53041;BME280;39326;42.650;23.248;2024-01-15T06:55:20;91672.09;;;-1.47;63.60
53041;BME280;39326;42.650;23.248;2024-01-15T06:57:46;91669.22;;;-1.42;63.36
53041;BME280;39326;42.650;23.248;2024-01-15T07:00:12;91676.31;;;-1.43;63.99
53041;BME280;39326;42.650;23.248;2024-01-15T07:02:37;91673.84;;;-1.51;64.51
53041;BME280;39326;42.650;23.248;2024-01-15T07:05:03;91685.59;;;-1.45;64.36
53041;BME280;39326;42.650;23.248;2024-01-15T07:07:30;91687.56;;;-1.55;65.28
53041;BME280;39326;42.650;23.248;2024-01-15T07:09:56;91694.13;;;-1.61;65.33
53041;BME280;39326;42.650;23.248;2024-01-15T07:12:21;91692.13;;;-1.51;64.96
53041;BME280;39326;42.650;23.248;2024-01-15T07:14:47;91674.16;;;-1.53;64.42
53041;BME280;39326;42.650;23.248;2024-01-15T07:17:12;91686.16;;;-1.52;65.05
53041;BME280;39326;42.650;23.248;2024-01-15T07:19:38;91683.53;;;-1.40;64.50
53041;BME280;39326;42.650;23.248;2024-01-15T07:22:03;91664.66;;;-1.33;64.06
53041;BME280;39326;42.650;23.248;2024-01-15T07:24:28;91671.72;;;-1.21;63.84
53041;BME280;39326;42.650;23.248;2024-01-15T07:26:54;91673.44;;;-1.13;63.68
53041;BME280;39326;42.650;23.248;2024-01-15T07:29:19;91669.53;;;-1.19;63.60
53041;BME280;39326;42.650;23.248;2024-01-15T07:31:51;91671.00;;;-1.06;63.00
53041;BME280;39326;42.650;23.248;2024-01-15T07:34:17;91665.84;;;-0.90;62.57
53041;BME280;39326;42.650;23.248;2024-01-15T07:36:45;91666.38;;;-0.85;62.24
53041;BME280;39326;42.650;23.248;2024-01-15T07:39:11;91670.06;;;-0.86;61.93
53041;BME280;39326;42.650;23.248;2024-01-15T07:41:37;91667.41;;;-0.74;62.22
53041;BME280;39326;42.650;23.248;2024-01-15T07:44:02;91663.03;;;-0.69;61.56
53041;BME280;39326;42.650;23.248;2024-01-15T07:46:28;91681.00;;;-0.96;62.62
53041;BME280;39326;42.650;23.248;2024-01-15T07:48:53;91681.19;;;-1.17;63.60
53041;BME280;39326;42.650;23.248;2024-01-15T07:51:24;91679.50;;;-0.97;62.85
53041;BME280;39326;42.650;23.248;2024-01-15T07:53:53;91685.88;;;-0.82;62.16
53041;BME280;39326;42.650;23.248;2024-01-15T07:56:20;91669.34;;;-0.70;61.89
53041;BME280;39326;42.650;23.248;2024-01-15T07:58:46;91653.59;;;-0.58;61.44
53041;BME280;39326;42.650;23.248;2024-01-15T08:01:12;91651.16;;;-0.51;61.45
53041;BME280;39326;42.650;23.248;2024-01-15T08:03:37;91648.88;;;-0.37;61.25
53041;BME280;39326;42.650;23.248;2024-01-15T08:06:03;91652.59;;;-0.38;61.33
53041;BME280;39326;42.650;23.248;2024-01-15T08:08:28;91664.28;;;-0.35;61.13
53041;BME280;39326;42.650;23.248;2024-01-15T08:10:54;91673.66;;;-0.34;60.46
53041;BME280;39326;42.650;23.248;2024-01-15T08:13:19;91663.00;;;-0.26;61.18
53041;BME280;39326;42.650;23.248;2024-01-15T08:15:45;91669.09;;;-0.22;60.08
53041;BME280;39326;42.650;23.248;2024-01-15T08:18:11;91683.88;;;-0.29;61.03
53041;BME280;39326;42.650;23.248;2024-01-15T08:20:37;91684.56;;;-0.32;61.24
53041;BME280;39326;42.650;23.248;2024-01-15T08:23:03;91676.34;;;-0.31;61.67
53041;BME280;39326;42.650;23.248;2024-01-15T08:25:28;91684.22;;;-0.31;60.96
53041;BME280;39326;42.650;23.248;2024-01-15T08:27:55;91682.34;;;-0.30;60.96
53041;BME280;39326;42.650;23.248;2024-01-15T08:30:21;91673.84;;;-0.11;60.87
53041;BME280;39326;42.650;23.248;2024-01-15T08:32:50;91674.28;;;-0.09;61.72
53041;BME280;39326;42.650;23.248;2024-01-15T08:35:15;91671.56;;;0.19;61.37
53041;BME280;39326;42.650;23.248;2024-01-15T08:37:41;91670.44;;;0.20;61.92
53041;BME280;39326;42.650;23.248;2024-01-15T08:40:06;91672.16;;;0.28;61.46
53041;BME280;39326;42.650;23.248;2024-01-15T08:42:32;91661.31;;;0.29;60.77
53041;BME280;39326;42.650;23.248;2024-01-15T08:44:57;91657.09;;;0.41;60.42
53041;BME280;39326;42.650;23.248;2024-01-15T08:47:23;91670.38;;;0.00;61.22
53041;BME280;39326;42.650;23.248;2024-01-15T08:49:48;91669.72;;;0.03;61.38
53041;BME280;39326;42.650;23.248;2024-01-15T08:52:13;91651.78;;;0.21;60.85
53041;BME280;39326;42.650;23.248;2024-01-15T08:54:39;91650.13;;;0.32;60.45
53041;BME280;39326;42.650;23.248;2024-01-15T08:57:04;91654.56;;;0.13;60.79
53041;BME280;39326;42.650;23.248;2024-01-15T08:59:29;91640.59;;;0.40;60.41
53041;BME280;39326;42.650;23.248;2024-01-15T09:01:55;91632.47;;;0.64;59.86
53041;BME280;39326;42.650;23.248;2024-01-15T09:04:23;91628.75;;;0.30;61.95
53041;BME280;39326;42.650;23.248;2024-01-15T09:06:49;91623.47;;;0.46;61.27
53041;BME280;39326;42.650;23.248;2024-01-15T09:09:15;91610.81;;;0.68;59.81
53041;BME280;39326;42.650;23.248;2024-01-15T09:11:40;91593.69;;;0.93;59.93
53041;BME280;39326;42.650;23.248;2024-01-15T09:14:06;91591.06;;;0.74;59.21
53041;BME280;39326;42.650;23.248;2024-01-15T09:16:33;91594.03;;;0.92;59.27
53041;BME280;39326;42.650;23.248;2024-01-15T09:18:58;91594.19;;;0.99;58.38
53041;BME280;39326;42.650;23.248;2024-01-15T09:21:24;91587.19;;;1.06;58.38
53041;BME280;39326;42.650;23.248;2024-01-15T09:23:52;91584.78;;;1.17;58.08
53041;BME280;39326;42.650;23.248;2024-01-15T09:26:17;91572.66;;;1.32;56.60
53041;BME280;39326;42.650;23.248;2024-01-15T09:28:43;91570.13;;;1.16;56.89
53041;BME280;39326;42.650;23.248;2024-01-15T09:31:08;91584.13;;;1.24;57.25
53041;BME280;39326;42.650;23.248;2024-01-15T09:33:34;91565.28;;;1.18;56.94
53041;BME280;39326;42.650;23.248;2024-01-15T09:36:03;91567.13;;;1.37;55.85
53041;BME280;39326;42.650;23.248;2024-01-15T09:38:29;91552.81;;;1.34;56.10
53041;BME280;39326;42.650;23.248;2024-01-15T09:40:57;91548.31;;;1.35;56.68
53041;BME280;39326;42.650;23.248;2024-01-15T09:43:22;91548.78;;;1.40;55.84
53041;BME280;39326;42.650;23.248;2024-01-15T09:45:49;91538.50;;;1.32;55.74
53041;BME280;39326;42.650;23.248;2024-01-15T09:48:15;91535.41;;;1.03;58.64
53041;BME280;39326;42.650;23.248;2024-01-15T09:50:41;91524.38;;;1.63;58.73
53041;BME280;39326;42.650;23.248;2024-01-15T09:53:08;91513.06;;;1.36;57.83
53041;BME280;39326;42.650;23.248;2024-01-15T09:55:36;91517.06;;;2.02;57.00
53041;BME280;39326;42.650;23.248;2024-01-15T09:58:02;91507.75;;;1.82;55.92
53041;BME280;39326;42.650;23.248;2024-01-15T10:00:28;91511.59;;;1.88;56.00
53041;BME280;39326;42.650;23.248;2024-01-15T10:02:54;91517.09;;;2.32;55.62
53041;BME280;39326;42.650;23.248;2024-01-15T10:05:19;91520.78;;;1.97;56.27
53041;BME280;39326;42.650;23.248;2024-01-15T10:07:46;91499.66;;;2.20;55.51
53041;BME280;39326;42.650;23.248;2024-01-15T10:10:12;91498.81;;;2.13;55.56
53041;BME280;39326;42.650;23.248;2024-01-15T10:12:39;91500.91;;;2.30;54.97
53041;BME280;39326;42.650;23.248;2024-01-15T10:15:05;91508.47;;;2.99;54.68
53041;BME280;39326;42.650;23.248;2024-01-15T10:17:30;91488.03;;;3.26;54.05
53041;BME280;39326;42.650;23.248;2024-01-15T10:19:57;91492.38;;;3.07;52.22
53041;BME280;39326;42.650;23.248;2024-01-15T10:22:22;91490.22;;;3.17;52.00
53041;BME280;39326;42.650;23.248;2024-01-15T10:24:48;91471.22;;;3.41;51.70
53041;BME280;39326;42.650;23.248;2024-01-15T10:27:14;91474.13;;;2.88;53.09
53041;BME280;39326;42.650;23.248;2024-01-15T10:29:41;91467.97;;;2.73;52.80
53041;BME280;39326;42.650;23.248;2024-01-15T10:32:07;91474.69;;;2.37;53.30
53041;BME280;39326;42.650;23.248;2024-01-15T10:34:39;91478.53;;;2.13;54.45
53041;BME280;39326;42.650;23.248;2024-01-15T10:37:07;91465.00;;;2.78;53.40
53041;BME280;39326;42.650;23.248;2024-01-15T10:39:33;91471.25;;;2.33;52.39
53041;BME280;39326;42.650;23.248;2024-01-15T10:41:58;91476.69;;;2.81;52.46
53041;BME280;39326;42.650;23.248;2024-01-15T10:44:25;91477.94;;;3.31;50.93
53041;BME280;39326;42.650;23.248;2024-01-15T10:46:50;91467.56;;;3.53;51.06
53041;BME280;39326;42.650;23.248;2024-01-15T10:49:16;91452.53;;;3.60;51.20
53041;BME280;39326;42.650;23.248;2024-01-15T10:51:44;91448.69;;;3.47;51.85
53041;BME280;39326;42.650;23.248;2024-01-15T10:54:10;91454.72;;;3.48;50.95
53041;BME280;39326;42.650;23.248;2024-01-15T10:56:37;91454.38;;;3.49;51.27
53041;BME280;39326;42.650;23.248;2024-01-15T10:59:03;91449.56;;;3.62;50.63
53041;BME280;39326;42.650;23.248;2024-01-15T11:01:30;91443.59;;;3.72;50.79
53041;BME280;39326;42.650;23.248;2024-01-15T11:03:56;91418.84;;;3.91;51.21
53041;BME280;39326;42.650;23.248;2024-01-15T11:06:24;91430.25;;;4.09;50.70
53041;BME280;39326;42.650;23.248;2024-01-15T11:08:50;91433.16;;;3.90;51.02
53041;BME280;39326;42.650;23.248;2024-01-15T11:11:16;91424.91;;;3.95;50.39
53041;BME280;39326;42.650;23.248;2024-01-15T11:13:42;91425.50;;;3.67;51.27
53041;BME280;39326;42.650;23.248;2024-01-15T11:16:13;91440.72;;;3.40;51.16
53041;BME280;39326;42.650;23.248;2024-01-15T11:21:24;91428.31;;;2.96;52.33
53041;BME280;39326;42.650;23.248;2024-01-15T11:23:55;91425.47;;;3.12;51.67
53041;BME280;39326;42.650;23.248;2024-01-15T11:28:55;91423.19;;;3.62;51.46
53041;BME280;39326;42.650;23.248;2024-01-15T11:33:53;91418.56;;;3.45;51.95
53041;BME280;39326;42.650;23.248;2024-01-15T11:36:20;91426.03;;;3.36;52.65
53041;BME280;39326;42.650;23.248;2024-01-15T11:38:46;91419.06;;;3.61;50.94
53041;BME280;39326;42.650;23.248;2024-01-15T11:41:14;91416.16;;;3.84;51.35
53041;BME280;39326;42.650;23.248;2024-01-15T11:43:42;91414.38;;;3.99;50.70
53041;BME280;39326;42.650;23.248;2024-01-15T11:46:11;91416.25;;;3.98;50.61
53041;BME280;39326;42.650;23.248;2024-01-15T11:48:43;91415.16;;;4.06;50.61
53041;BME280;39326;42.650;23.248;2024-01-15T11:51:11;91405.09;;;4.19;51.20
53041;BME280;39326;42.650;23.248;2024-01-15T11:53:43;91401.56;;;4.04;51.14
53041;BME280;39326;42.650;23.248;2024-01-15T11:56:16;91392.31;;;3.63;51.43
53041;BME280;39326;42.650;23.248;2024-01-15T11:58:43;91389.81;;;3.84;51.79
53041;BME280;39326;42.650;23.248;2024-01-15T12:01:09;91395.34;;;3.65;51.23
53041;BME280;39326;42.650;23.248;2024-01-15T12:03:35;91387.72;;;3.49;52.32
53041;BME280;39326;42.650;23.248;2024-01-15T12:06:01;91389.78;;;3.77;51.70
53041;BME280;39326;42.650;23.248;2024-01-15T12:08:26;91377.06;;;3.93;51.49
53041;BME280;39326;42.650;23.248;2024-01-15T12:10:52;91369.91;;;4.04;51.28
53041;BME280;39326;42.650;23.248;2024-01-15T12:13:18;91390.00;;;3.50;52.70
53041;BME280;39326;42.650;23.248;2024-01-15T12:15:46;91381.81;;;3.70;52.02
53041;BME280;39326;42.650;23.248;2024-01-15T12:18:13;91382.28;;;3.86;51.85
53041;BME280;39326;42.650;23.248;2024-01-15T12:20:40;91376.31;;;4.00;51.40
53041;BME280;39326;42.650;23.248;2024-01-15T12:23:06;91367.28;;;4.01;51.41
53041;BME280;39326;42.650;23.248;2024-01-15T12:25:32;91362.03;;;4.08;51.58
53041;BME280;39326;42.650;23.248;2024-01-15T12:27:58;91368.88;;;4.16;51.52
53041;BME280;39326;42.650;23.248;2024-01-15T12:30:28;91368.88;;;4.16;52.36
53041;BME280;39326;42.650;23.248;2024-01-15T12:32:54;91367.19;;;3.83;53.04
53041;BME280;39326;42.650;23.248;2024-01-15T12:35:20;91361.22;;;3.93;52.36
53041;BME280;39326;42.650;23.248;2024-01-15T12:37:47;91362.75;;;3.94;52.33
53041;BME280;39326;42.650;23.248;2024-01-15T12:40:13;91367.69;;;4.10;52.00
53041;BME280;39326;42.650;23.248;2024-01-15T12:42:43;91348.09;;;4.07;51.45
53041;BME280;39326;42.650;23.248;2024-01-15T12:45:11;91349.28;;;4.13;51.84
53041;BME280;39326;42.650;23.248;2024-01-15T12:47:37;91354.94;;;4.15;52.36
53041;BME280;39326;42.650;23.248;2024-01-15T12:50:02;91353.44;;;4.22;51.86
53041;BME280;39326;42.650;23.248;2024-01-15T12:52:31;91348.56;;;4.27;52.04
53041;BME280;39326;42.650;23.248;2024-01-15T12:54:57;91345.19;;;4.34;51.95